首页
METAR-TAF:

METAR-TAF

机场 :

伊爾庫茨克國際機場

伊爾庫茨克, 俄罗斯

纬度: 52-16N, 经度: 104-19E, 海拔: 513米

当前天气观测

该预报发布于36分钟前的23:30 UTC
风速8节,风向西北
温度 7°C
湿度 70%
气压 1021 hPa
能见度10公里或以上
1500米以下无云,无积雨云

METAR: UIII 242330Z 31004MPS CAVOK 07/02 Q1021 R30/CLRD60 NOSIG RMK QFE721/0961

时间: 08:06 (00:06 UTC)

预报

该预报发布于1小时和6分钟前的23:00 UTC
预报有效从25日的 00点(UTC)到 25日的 24点(UTC)
风速6节,风向北转西北
能见度10公里或以上
短暂存在
从 25日的 00点(UTC)到 25日的 12点(UTC)
风速16节,风向西北

TAF: UIII 242300Z 2500/2524 33003MPS 9999 NSC TEMPO 2500/2512 32008MPS

超过4000个机场的气象观测和天气预报(METAR&TAF报告)。

可查询的气象台以黄色和红色小点在地图上表示。

将鼠标移到小点上方,可查看气象台名称。

然后点击查看天气观测和预报。

如需切换地图:点击带黑十字的绿色按钮放大地图;点击带横线的绿色按钮缩小地图;或者点击绿色箭头查看邻近地区的地图。


METAR-TAF: